createdAt,value
2023-04-04T00:00:12.383Z,1.80
2023-04-04T00:02:40.224Z,1.80
2023-04-04T00:05:09.833Z,1.97
2023-04-04T00:07:37.799Z,1.67
2023-04-04T00:10:06.183Z,1.50
2023-04-04T00:12:33.762Z,1.67
2023-04-04T00:15:01.385Z,1.50
2023-04-04T00:17:29.187Z,1.60
2023-04-04T00:19:57.083Z,1.50
2023-04-04T00:22:26.158Z,1.80
2023-04-04T00:24:53.749Z,1.80
2023-04-04T00:27:21.547Z,1.30
2023-04-04T00:29:51.506Z,1.77
2023-04-04T00:32:19.180Z,2.23
2023-04-04T00:34:46.844Z,1.60
2023-04-04T00:37:14.435Z,1.87
2023-04-04T00:39:43.774Z,1.23
2023-04-04T00:42:11.692Z,1.40
2023-04-04T00:44:39.525Z,1.80
2023-04-04T00:47:07.275Z,1.67
2023-04-04T00:49:34.958Z,1.90
2023-04-04T00:52:03.129Z,1.80
2023-04-04T00:54:31.474Z,2.10
2023-04-04T00:57:02.087Z,2.00
2023-04-04T00:59:30.098Z,1.40
2023-04-04T01:01:58.267Z,1.90
2023-04-04T01:04:25.988Z,2.00
2023-04-04T01:06:53.686Z,1.57
2023-04-04T01:09:23.000Z,1.40
2023-04-04T01:11:51.462Z,2.20
2023-04-04T01:14:20.471Z,1.77
2023-04-04T01:16:49.914Z,2.07
2023-04-04T01:19:31.868Z,2.13
2023-04-04T01:22:01.283Z,2.13
2023-04-04T01:24:33.627Z,1.90
2023-04-04T01:27:02.900Z,1.70
2023-04-04T01:29:30.670Z,1.93
2023-04-04T01:32:05.162Z,2.43
2023-04-04T01:34:42.954Z,1.80
2023-04-04T01:37:17.715Z,1.60
2023-04-04T01:39:50.656Z,2.30
2023-04-04T01:42:20.991Z,1.80
2023-04-04T01:44:48.854Z,1.93
2023-04-04T01:47:16.901Z,2.17
2023-04-04T01:49:44.574Z,1.70
2023-04-04T01:52:12.269Z,1.83
2023-04-04T01:54:39.819Z,1.80
2023-04-04T01:57:07.551Z,1.83
2023-04-04T01:59:36.642Z,1.97
2023-04-04T02:02:04.270Z,1.60
2023-04-04T02:04:32.185Z,1.80
2023-04-04T02:07:00.101Z,1.80
2023-04-04T02:09:27.775Z,2.07
2023-04-04T02:11:56.360Z,2.00
2023-04-04T02:14:23.985Z,1.80
2023-04-04T02:16:52.862Z,1.47
2023-04-04T02:19:20.585Z,2.07
2023-04-04T02:21:48.211Z,2.53
2023-04-04T02:24:15.834Z,2.33
2023-04-04T02:26:43.503Z,2.67
2023-04-04T02:29:11.172Z,2.23
2023-04-04T02:31:38.796Z,2.23
2023-04-04T02:34:08.929Z,1.90
2023-04-04T02:36:36.724Z,1.83
2023-04-04T02:39:04.741Z,2.00
2023-04-04T02:41:32.606Z,1.80
2023-04-04T02:44:00.275Z,1.83
2023-04-04T02:46:30.185Z,1.60
2023-04-04T02:48:57.851Z,2.00
2023-04-04T02:51:27.460Z,2.03
2023-04-04T02:53:55.022Z,2.30
2023-04-04T02:56:22.753Z,2.03
2023-04-04T02:58:53.396Z,1.90
2023-04-04T03:01:21.320Z,2.20
2023-04-04T03:03:50.086Z,2.20
2023-04-04T03:06:20.415Z,2.10
2023-04-04T03:08:50.479Z,1.80
2023-04-04T03:11:21.214Z,1.70
2023-04-04T03:13:51.380Z,2.40
2023-04-04T03:16:20.705Z,2.70
2023-04-04T03:18:48.369Z,2.17
2023-04-04T03:21:16.931Z,2.50
2023-04-04T03:23:44.640Z,2.07
2023-04-04T03:26:13.818Z,2.60
2023-04-04T03:28:42.075Z,2.30
2023-04-04T03:31:10.184Z,2.13
2023-04-04T03:33:38.125Z,2.03
2023-04-04T03:36:11.813Z,1.93
2023-04-04T03:38:39.989Z,1.83
2023-04-04T03:41:08.759Z,1.50
2023-04-04T03:43:37.893Z,2.13
2023-04-04T03:46:07.213Z,2.13
2023-04-04T03:48:35.528Z,2.43
2023-04-04T03:51:04.937Z,2.10
2023-04-04T03:53:33.034Z,2.00
2023-04-04T03:56:01.093Z,2.00
2023-04-04T03:58:30.309Z,2.07
2023-04-04T04:00:59.248Z,2.10
2023-04-04T04:03:27.021Z,2.13
2023-04-04T04:05:55.301Z,1.90
2023-04-04T04:08:24.089Z,1.73
2023-04-04T04:10:53.358Z,2.30
2023-04-04T04:13:22.894Z,1.80
2023-04-04T04:15:52.653Z,2.10
2023-04-04T04:18:21.741Z,2.00
2023-04-04T04:20:49.448Z,1.80
2023-04-04T04:23:17.161Z,1.80
2023-04-04T04:25:49.133Z,1.70
2023-04-04T04:28:18.577Z,2.00
2023-04-04T04:30:46.427Z,2.20
2023-04-04T04:33:14.226Z,1.83
2023-04-04T04:35:43.423Z,2.37
2023-04-04T04:38:14.093Z,2.20
2023-04-04T04:40:43.010Z,1.90
2023-04-04T04:43:11.011Z,1.70
2023-04-04T04:45:38.756Z,1.80
2023-04-04T04:48:14.781Z,1.97
2023-04-04T04:50:53.391Z,2.53
2023-04-04T04:53:21.928Z,1.90
2023-04-04T04:55:52.422Z,1.83
2023-04-04T04:58:24.096Z,2.00
2023-04-04T05:00:58.182Z,1.90
2023-04-04T05:03:26.245Z,1.90
2023-04-04T05:05:55.404Z,2.17
2023-04-04T05:08:23.692Z,1.90
2023-04-04T05:10:52.780Z,1.83
2023-04-04T05:13:20.413Z,2.30
2023-04-04T05:15:49.733Z,2.00
2023-04-04T05:18:18.547Z,2.10
2023-04-04T05:20:52.161Z,2.00
2023-04-04T05:23:21.560Z,1.60
2023-04-04T05:25:50.638Z,1.90
2023-04-04T05:28:18.368Z,2.00
2023-04-04T05:30:48.114Z,1.90
2023-04-04T05:33:15.774Z,1.83
2023-04-04T05:35:43.508Z,1.90
2023-04-04T05:38:11.111Z,2.00
2023-04-04T05:40:40.480Z,1.97
2023-04-04T05:43:09.371Z,2.07
2023-04-04T05:45:38.424Z,1.70
2023-04-04T05:48:07.728Z,1.60
2023-04-04T05:50:35.787Z,1.80
2023-04-04T05:53:07.296Z,1.77
2023-04-04T05:55:35.069Z,1.83
2023-04-04T05:58:04.145Z,1.60
2023-04-04T06:00:32.169Z,2.10
2023-04-04T06:03:00.420Z,1.93
2023-04-04T06:05:28.541Z,2.10
2023-04-04T06:08:03.913Z,2.00
2023-04-04T06:10:31.656Z,2.20
2023-04-04T06:12:59.250Z,1.50
2023-04-04T06:15:28.269Z,2.20
2023-04-04T06:17:55.939Z,2.20
2023-04-04T06:20:24.187Z,1.90
2023-04-04T06:22:51.944Z,2.03
2023-04-04T06:25:22.102Z,2.30
2023-04-04T06:27:49.907Z,2.20
2023-04-04T06:30:18.230Z,2.03
2023-04-04T06:32:47.269Z,2.13
2023-04-04T06:35:15.178Z,1.83
2023-04-04T06:37:43.259Z,2.00
2023-04-04T06:40:11.828Z,1.53
2023-04-04T06:42:39.495Z,4.03
2023-04-04T06:45:08.578Z,1.97
2023-04-04T06:47:36.196Z,2.00
2023-04-04T06:50:06.154Z,1.60
2023-04-04T06:52:34.511Z,1.90
2023-04-04T06:55:02.223Z,2.10
2023-04-04T06:57:29.867Z,1.60
2023-04-04T06:59:57.660Z,1.87
2023-04-04T07:02:25.802Z,1.90
2023-04-04T07:04:53.503Z,1.60
2023-04-04T07:07:22.675Z,2.07
2023-04-04T07:09:51.582Z,2.13
2023-04-04T07:12:19.587Z,1.70
2023-04-04T07:14:47.461Z,1.80
2023-04-04T07:17:24.228Z,2.00
2023-04-04T07:19:54.190Z,1.60
2023-04-04T07:22:23.306Z,1.80
2023-04-04T07:24:51.003Z,1.60
2023-04-04T07:27:21.797Z,1.80
2023-04-04T07:29:56.157Z,1.87
2023-04-04T07:32:27.565Z,2.00
2023-04-04T07:34:55.441Z,1.60
2023-04-04T07:37:26.540Z,1.73
2023-04-04T07:39:54.178Z,2.07
2023-04-04T07:42:23.932Z,1.70
2023-04-04T07:44:51.957Z,1.87
2023-04-04T07:47:20.523Z,2.37
2023-04-04T07:49:48.282Z,1.83
2023-04-04T07:52:16.376Z,2.30
2023-04-04T07:54:45.309Z,1.87
2023-04-04T07:57:12.970Z,2.00
2023-04-04T07:59:40.784Z,1.57
2023-04-04T08:02:08.477Z,1.80
2023-04-04T08:04:36.541Z,1.40
2023-04-04T08:07:04.182Z,1.93
2023-04-04T08:09:34.329Z,1.67
2023-04-04T08:12:03.535Z,1.73
2023-04-04T08:14:31.430Z,1.40
2023-04-04T08:17:01.246Z,1.43
2023-04-04T08:19:28.980Z,1.80
2023-04-04T08:21:56.904Z,1.80
2023-04-04T08:24:25.571Z,2.10
2023-04-04T08:27:04.618Z,1.83
2023-04-04T08:29:35.522Z,1.70
2023-04-04T08:32:03.257Z,1.60
2023-04-04T08:34:31.139Z,2.17
2023-04-04T08:37:00.152Z,1.60
2023-04-04T08:39:28.103Z,1.77
2023-04-04T08:42:02.634Z,1.50
2023-04-04T08:44:31.174Z,1.70
2023-04-04T08:47:01.483Z,1.70
2023-04-04T08:49:32.972Z,1.60
2023-04-04T08:52:02.649Z,1.83
2023-04-04T08:54:32.112Z,1.50
2023-04-04T08:56:59.821Z,1.73
2023-04-04T08:59:27.716Z,1.70
2023-04-04T09:02:03.839Z,1.90
2023-04-04T09:04:32.926Z,2.37
2023-04-04T09:07:03.384Z,1.57
2023-04-04T09:09:32.368Z,2.27
2023-04-04T09:12:01.459Z,1.80
2023-04-04T09:14:31.868Z,1.80
2023-04-04T09:17:00.973Z,1.70
2023-04-04T09:19:28.609Z,1.70
2023-04-04T09:21:56.856Z,1.50
2023-04-04T09:24:24.394Z,1.77
2023-04-04T09:26:54.170Z,1.50
2023-04-04T09:29:22.463Z,1.60
2023-04-04T09:31:51.575Z,1.50
2023-04-04T09:34:21.589Z,1.60
2023-04-04T09:36:49.467Z,1.50
2023-04-04T09:39:17.558Z,1.50
2023-04-04T09:41:46.366Z,1.37
2023-04-04T09:44:15.419Z,2.00
2023-04-04T09:46:43.435Z,1.60
2023-04-04T09:49:13.412Z,1.40
2023-04-04T09:51:45.338Z,1.70
2023-04-04T09:54:28.873Z,1.50
2023-04-04T09:56:58.374Z,1.80
2023-04-04T09:59:27.263Z,1.47
2023-04-04T10:01:55.940Z,1.70
2023-04-04T10:04:27.168Z,1.73
2023-04-04T10:06:56.612Z,1.57
2023-04-04T10:09:24.351Z,1.60
2023-04-04T10:11:52.298Z,1.80
2023-04-04T10:14:20.147Z,1.50
2023-04-04T10:16:47.717Z,1.50
2023-04-04T10:19:19.001Z,1.50
2023-04-04T10:21:47.708Z,1.77
2023-04-04T10:24:18.938Z,1.77
2023-04-04T10:26:46.784Z,1.77
2023-04-04T10:29:14.542Z,1.50
2023-04-04T10:31:48.139Z,1.63
2023-04-04T10:34:23.066Z,1.73
2023-04-04T10:36:52.802Z,1.30
2023-04-04T10:39:27.174Z,1.50
2023-04-04T10:41:56.794Z,1.30
2023-04-04T10:44:29.602Z,2.20
2023-04-04T10:46:59.634Z,1.47
2023-04-04T10:49:29.679Z,1.37
2023-04-04T10:51:58.260Z,1.30
2023-04-04T10:54:29.131Z,1.83
2023-04-04T10:57:01.366Z,1.57
2023-04-04T10:59:29.191Z,1.70
2023-04-04T11:01:58.725Z,1.30
2023-04-04T11:04:35.031Z,1.33
2023-04-04T11:07:17.609Z,1.20
2023-04-04T11:09:54.845Z,1.53
2023-04-04T11:12:27.153Z,1.30
2023-04-04T11:15:09.736Z,1.77
2023-04-04T11:18:14.321Z,1.57
2023-04-04T11:20:52.581Z,1.97
2023-04-04T11:23:22.736Z,1.70
2023-04-04T11:25:55.559Z,1.90
2023-04-04T11:28:27.977Z,1.37
2023-04-04T11:31:24.741Z,2.33
2023-04-04T11:33:59.454Z,1.57
2023-04-04T11:36:55.069Z,1.40
2023-04-04T11:39:25.880Z,1.53
2023-04-04T11:42:03.498Z,1.40
2023-04-04T11:44:32.446Z,1.50
2023-04-04T11:47:05.167Z,1.80
2023-04-04T11:49:36.113Z,1.90
2023-04-04T11:52:06.658Z,2.03
2023-04-04T11:54:34.726Z,1.60
2023-04-04T11:57:03.822Z,1.50
2023-04-04T11:59:31.670Z,1.60
2023-04-04T12:02:01.152Z,1.50
2023-04-04T12:04:29.240Z,1.50
2023-04-04T12:06:57.951Z,1.70
2023-04-04T12:09:28.316Z,1.50
2023-04-04T12:11:56.918Z,2.10
2023-04-04T12:14:27.193Z,1.83
2023-04-04T12:16:57.480Z,1.70
2023-04-04T12:19:25.826Z,1.73
2023-04-04T12:21:54.863Z,2.00
2023-04-04T12:24:23.027Z,1.90
2023-04-04T12:26:53.114Z,1.50
2023-04-04T12:29:23.236Z,1.50
2023-04-04T12:31:53.427Z,1.83
2023-04-04T12:34:23.730Z,1.90
2023-04-04T12:36:54.070Z,1.80
2023-04-04T12:39:23.397Z,1.97
2023-04-04T12:41:55.530Z,3.03
2023-04-04T12:44:29.174Z,1.90
2023-04-04T12:47:01.343Z,2.00
2023-04-04T12:49:31.148Z,2.17
2023-04-04T12:52:03.823Z,1.60
2023-04-04T12:54:33.066Z,1.90
2023-04-04T12:57:04.427Z,1.60
2023-04-04T12:59:33.818Z,2.03
2023-04-04T13:02:05.279Z,2.07
2023-04-04T13:04:33.338Z,1.73
2023-04-04T13:07:01.907Z,2.17
2023-04-04T13:09:29.676Z,2.80
2023-04-04T13:11:58.827Z,1.90
2023-04-04T13:14:26.634Z,2.07
2023-04-04T13:17:08.089Z,1.60
2023-04-04T13:19:36.148Z,2.10
2023-04-04T13:22:06.942Z,2.00
2023-04-04T13:24:34.797Z,1.90
2023-04-04T13:27:02.492Z,1.90
2023-04-04T13:29:30.065Z,1.77
2023-04-04T13:32:00.123Z,2.00
2023-04-04T13:34:29.371Z,1.83
2023-04-04T13:36:57.766Z,2.27
2023-04-04T13:39:25.586Z,2.00
2023-04-04T13:41:53.942Z,1.60
2023-04-04T13:44:21.622Z,2.30
2023-04-04T13:46:49.912Z,2.27
2023-04-04T13:49:17.582Z,2.23
2023-04-04T13:51:47.975Z,2.20
2023-04-04T13:54:15.698Z,2.03
2023-04-04T13:56:43.371Z,2.47
2023-04-04T13:59:11.368Z,1.63
2023-04-04T14:01:39.558Z,1.90
2023-04-04T14:04:16.594Z,2.00
2023-04-04T14:06:52.218Z,1.90
2023-04-04T14:09:20.165Z,1.70
2023-04-04T14:11:48.192Z,1.83
2023-04-04T14:14:15.830Z,2.10
2023-04-04T14:16:43.529Z,2.10
2023-04-04T14:19:11.299Z,2.13
2023-04-04T14:21:39.491Z,2.07
2023-04-04T14:24:08.888Z,2.00
2023-04-04T14:26:37.729Z,2.00
2023-04-04T14:29:05.706Z,2.37
2023-04-04T14:31:34.923Z,1.83
2023-04-04T14:34:02.791Z,2.13
2023-04-04T14:36:31.607Z,2.00
2023-04-04T14:38:59.787Z,2.20
2023-04-04T14:41:29.198Z,2.30
2023-04-04T14:43:57.162Z,2.20
2023-04-04T14:46:27.365Z,2.10
2023-04-04T14:48:55.273Z,2.40
2023-04-04T14:51:23.100Z,2.13
2023-04-04T14:53:52.465Z,2.33
2023-04-04T14:56:22.752Z,1.90
2023-04-04T14:58:52.487Z,1.77
2023-04-04T15:01:21.963Z,1.90
2023-04-04T15:03:49.683Z,2.30
2023-04-04T15:06:17.489Z,2.07
2023-04-04T15:08:45.585Z,2.10
2023-04-04T15:11:15.866Z,2.17
2023-04-04T15:13:44.231Z,2.10
2023-04-04T15:16:13.335Z,2.07
2023-04-04T15:18:41.064Z,1.63
2023-04-04T15:21:08.713Z,1.90
2023-04-04T15:23:36.572Z,2.37
2023-04-04T15:26:04.296Z,1.90
2023-04-04T15:28:31.973Z,2.53
2023-04-04T15:31:01.946Z,1.77
2023-04-04T15:33:32.259Z,2.27
2023-04-04T15:36:01.133Z,2.13
2023-04-04T15:38:28.966Z,2.10
2023-04-04T15:40:57.838Z,2.20
2023-04-04T15:43:28.179Z,1.80
2023-04-04T15:45:55.778Z,2.27
2023-04-04T15:48:23.677Z,2.90
2023-04-04T15:50:52.936Z,2.00
2023-04-04T15:53:20.743Z,2.03
2023-04-04T15:55:49.643Z,2.30
2023-04-04T15:58:17.193Z,1.97
2023-04-04T16:00:47.465Z,2.10
2023-04-04T16:03:15.668Z,1.87
2023-04-04T16:05:43.623Z,2.33
2023-04-04T16:08:13.263Z,2.17
2023-04-04T16:10:41.332Z,2.20
2023-04-04T16:13:09.316Z,2.00
2023-04-04T16:15:37.060Z,2.20
2023-04-04T16:18:04.952Z,1.83
2023-04-04T16:20:32.615Z,2.30
2023-04-04T16:23:00.253Z,2.13
2023-04-04T16:25:29.431Z,2.20
2023-04-04T16:27:57.133Z,1.87
2023-04-04T16:30:24.955Z,2.20
2023-04-04T16:32:52.662Z,1.97
2023-04-04T16:35:20.488Z,1.80
2023-04-04T16:37:48.709Z,2.07
2023-04-04T16:40:16.584Z,2.10
2023-04-04T16:42:45.983Z,2.13
2023-04-04T16:45:13.650Z,2.03
2023-04-04T16:47:41.302Z,1.93
2023-04-04T16:50:09.482Z,2.03
2023-04-04T16:52:37.107Z,2.10
2023-04-04T16:55:05.309Z,2.40
2023-04-04T16:57:33.215Z,2.33
2023-04-04T17:00:04.042Z,1.90
2023-04-04T17:02:34.628Z,1.87
2023-04-04T17:05:02.590Z,2.03
2023-04-04T17:07:30.510Z,2.27
2023-04-04T17:09:58.093Z,1.90
2023-04-04T17:12:27.155Z,2.13
2023-04-04T17:14:54.954Z,2.30
2023-04-04T17:17:23.996Z,2.10
2023-04-04T17:19:51.920Z,2.17
2023-04-04T17:22:19.822Z,2.07
2023-04-04T17:24:47.524Z,2.47
2023-04-04T17:27:15.131Z,2.87
2023-04-04T17:29:42.901Z,2.67
2023-04-04T17:32:10.826Z,2.30
2023-04-04T17:34:40.055Z,2.30
2023-04-04T17:37:11.090Z,2.70
2023-04-04T17:39:38.858Z,2.70
2023-04-04T17:42:06.944Z,2.50
2023-04-04T17:44:34.822Z,2.40
2023-04-04T17:47:05.427Z,2.20
2023-04-04T17:49:33.118Z,2.43
2023-04-04T17:52:02.572Z,2.30
2023-04-04T17:54:30.738Z,2.40
2023-04-04T17:56:59.440Z,2.47
2023-04-04T17:59:27.961Z,2.30
2023-04-04T18:01:55.862Z,2.83
2023-04-04T18:04:25.359Z,2.57
2023-04-04T18:06:54.552Z,3.03
2023-04-04T18:09:26.490Z,2.53
2023-04-04T18:11:58.216Z,2.83
2023-04-04T18:14:26.661Z,2.50
2023-04-04T18:16:54.666Z,2.80
2023-04-04T18:19:22.744Z,2.50
2023-04-04T18:21:51.616Z,2.50
2023-04-04T18:24:19.396Z,2.80
2023-04-04T18:26:48.421Z,2.50
2023-04-04T18:29:16.251Z,2.30
2023-04-04T18:31:44.091Z,2.40
2023-04-04T18:34:14.975Z,2.63
2023-04-04T18:36:42.656Z,2.50
2023-04-04T18:39:11.309Z,2.67
2023-04-04T18:41:39.072Z,2.67
2023-04-04T18:44:08.800Z,3.00
2023-04-04T18:46:38.111Z,2.80
2023-04-04T18:49:06.101Z,2.70
2023-04-04T18:51:34.425Z,2.57
2023-04-04T18:54:02.452Z,2.60
2023-04-04T18:56:30.388Z,2.67
2023-04-04T18:58:58.117Z,3.20
2023-04-04T19:01:27.307Z,3.10
2023-04-04T19:03:55.344Z,2.80
2023-04-04T19:06:26.711Z,2.73
2023-04-04T19:09:01.047Z,3.43
2023-04-04T19:11:29.198Z,2.80
2023-04-04T19:13:57.039Z,2.60
2023-04-04T19:16:25.005Z,2.53
2023-04-04T19:18:54.345Z,2.70
2023-04-04T19:21:22.234Z,2.97
2023-04-04T19:23:50.033Z,3.10
2023-04-04T19:26:18.355Z,3.47
2023-04-04T19:28:46.651Z,3.03
2023-04-04T19:31:21.490Z,3.60
2023-04-04T19:33:50.555Z,3.17
2023-04-04T19:36:20.804Z,3.00
2023-04-04T19:38:49.243Z,3.60
2023-04-04T19:41:33.771Z,3.60
2023-04-04T19:44:01.611Z,3.23
2023-04-04T19:46:32.158Z,3.30
2023-04-04T19:49:02.772Z,3.20
2023-04-04T19:51:52.838Z,3.23
2023-04-04T19:54:26.121Z,4.00
2023-04-04T19:56:59.788Z,3.57
2023-04-04T19:59:59.030Z,4.50
2023-04-04T20:03:02.963Z,4.40
2023-04-04T20:06:03.355Z,3.03
2023-04-04T20:08:38.488Z,3.40
2023-04-04T20:11:07.565Z,3.60
2023-04-04T20:13:37.032Z,3.60
2023-04-04T20:16:11.007Z,3.47
2023-04-04T20:18:39.976Z,3.37
2023-04-04T20:21:10.494Z,3.53
2023-04-04T20:23:43.292Z,3.27
2023-04-04T20:26:14.341Z,3.60
2023-04-04T20:28:45.554Z,3.77
2023-04-04T20:31:17.231Z,4.50
2023-04-04T20:33:45.288Z,3.47
2023-04-04T20:36:31.254Z,3.70
2023-04-04T20:39:00.815Z,3.20
2023-04-04T20:41:28.804Z,3.20
2023-04-04T20:43:58.198Z,2.80
2023-04-04T20:46:27.256Z,4.40
2023-04-04T20:48:57.054Z,3.20
2023-04-04T20:51:32.481Z,3.00
2023-04-04T20:54:06.142Z,3.40
2023-04-04T20:56:52.545Z,3.13
2023-04-04T20:59:38.393Z,3.50
2023-04-04T21:02:16.705Z,2.90
2023-04-04T21:04:48.066Z,3.00
2023-04-04T21:07:38.745Z,3.33
2023-04-04T21:10:26.422Z,3.13
2023-04-04T21:12:54.804Z,3.40
2023-04-04T21:15:28.386Z,3.13
2023-04-04T21:17:56.798Z,3.60
2023-04-04T21:21:01.975Z,3.57
2023-04-04T21:23:34.042Z,3.30
2023-04-04T21:26:04.574Z,4.20
2023-04-04T21:28:37.285Z,3.00
2023-04-04T21:31:12.240Z,3.47
2023-04-04T21:33:40.772Z,3.27
2023-04-04T21:36:16.116Z,3.13
2023-04-04T21:38:43.867Z,3.00
2023-04-04T21:41:21.351Z,3.80
2023-04-04T21:43:48.977Z,3.70
2023-04-04T21:46:16.833Z,2.97
2023-04-04T21:48:44.632Z,3.63
2023-04-04T21:51:12.376Z,3.20
2023-04-04T21:53:39.908Z,3.23
2023-04-04T21:56:07.741Z,3.57
2023-04-04T21:58:37.955Z,4.03
2023-04-04T22:01:05.995Z,3.50
2023-04-04T22:03:33.612Z,3.07
2023-04-04T22:06:01.250Z,3.33
2023-04-04T22:08:28.896Z,3.30
2023-04-04T22:10:58.817Z,3.10
2023-04-04T22:13:33.166Z,3.70
2023-04-04T22:16:04.781Z,3.20
2023-04-04T22:18:34.620Z,3.97
2023-04-04T22:21:04.211Z,3.17
2023-04-04T22:23:35.469Z,3.40
2023-04-04T22:26:06.236Z,4.13
2023-04-04T22:28:34.520Z,3.33
2023-04-04T22:31:03.724Z,3.27
2023-04-04T22:33:33.861Z,3.30
2023-04-04T22:36:01.841Z,3.60
2023-04-04T22:38:30.346Z,3.00
2023-04-04T22:40:59.456Z,3.07
2023-04-04T22:43:27.431Z,2.93
2023-04-04T22:45:55.088Z,3.60
2023-04-04T22:48:24.364Z,3.40
2023-04-04T22:50:55.568Z,3.43
2023-04-04T22:53:24.976Z,3.57
2023-04-04T22:55:53.747Z,3.23
2023-04-04T22:58:22.396Z,3.13
2023-04-04T23:00:50.103Z,3.57
2023-04-04T23:03:17.747Z,3.63
2023-04-04T23:05:46.704Z,3.40
2023-04-04T23:08:14.285Z,3.30
2023-04-04T23:10:42.136Z,4.20
2023-04-04T23:13:09.969Z,3.27
2023-04-04T23:15:37.788Z,3.23
2023-04-04T23:18:06.460Z,2.90
2023-04-04T23:20:34.192Z,2.80
2023-04-04T23:23:03.183Z,3.33
2023-04-04T23:25:30.776Z,3.70
2023-04-04T23:27:58.361Z,3.30
2023-04-04T23:30:27.293Z,3.10
2023-04-04T23:32:55.013Z,3.60
2023-04-04T23:35:22.658Z,3.33
2023-04-04T23:37:50.417Z,3.07
2023-04-04T23:40:19.628Z,3.00
2023-04-04T23:42:47.232Z,3.30
2023-04-04T23:45:16.104Z,3.40
2023-04-04T23:47:44.014Z,3.50
2023-04-04T23:50:12.075Z,3.40
2023-04-04T23:52:40.908Z,3.30
2023-04-04T23:55:09.330Z,3.20
2023-04-04T23:57:38.932Z,3.07
